createdAt,value
2022-12-02T00:00:52.431Z,28.27
2022-12-02T00:03:22.439Z,27.50
2022-12-02T00:05:52.003Z,25.42
2022-12-02T00:08:22.568Z,26.60
2022-12-02T00:10:53.723Z,27.65
2022-12-02T00:13:24.287Z,25.92
2022-12-02T00:15:54.387Z,26.50
2022-12-02T00:18:22.077Z,26.70
2022-12-02T00:20:49.696Z,26.00
2022-12-02T00:23:17.613Z,26.00
2022-12-02T00:25:48.294Z,26.77
2022-12-02T00:28:17.507Z,26.20
2022-12-02T00:30:45.756Z,25.08
2022-12-02T00:33:13.581Z,24.52
2022-12-02T00:35:41.232Z,25.90
2022-12-02T00:38:08.885Z,25.92
2022-12-02T00:40:36.900Z,25.60
2022-12-02T00:43:20.978Z,24.63
2022-12-02T00:46:08.019Z,23.98
2022-12-02T00:48:36.014Z,23.75
2022-12-02T00:51:04.297Z,23.27
2022-12-02T00:53:31.976Z,24.48
2022-12-02T00:55:59.622Z,23.35
2022-12-02T00:58:27.237Z,25.02
2022-12-02T01:00:56.227Z,22.45
2022-12-02T01:03:23.973Z,24.95
2022-12-02T01:05:51.718Z,23.67
2022-12-02T01:08:19.327Z,24.20
2022-12-02T01:10:46.967Z,25.13
2022-12-02T01:13:14.562Z,24.58
2022-12-02T01:15:42.228Z,24.30
2022-12-02T01:18:11.438Z,24.10
2022-12-02T01:20:39.149Z,25.05
2022-12-02T01:23:06.756Z,26.48
2022-12-02T01:25:34.617Z,24.85
2022-12-02T01:28:02.430Z,26.17
2022-12-02T01:30:30.221Z,25.75
2022-12-02T01:32:57.882Z,25.73
2022-12-02T01:35:26.944Z,27.00
2022-12-02T01:37:54.594Z,27.35
2022-12-02T01:40:22.506Z,27.27
2022-12-02T01:42:50.459Z,28.58
2022-12-02T01:45:18.352Z,26.58
2022-12-02T01:47:46.132Z,24.45
2022-12-02T01:50:14.972Z,23.83
2022-12-02T01:52:44.315Z,26.40
2022-12-02T01:55:14.004Z,24.15
2022-12-02T01:57:41.735Z,24.63
2022-12-02T02:00:10.714Z,24.65
2022-12-02T02:02:39.942Z,23.85
2022-12-02T02:05:10.471Z,23.80
2022-12-02T02:07:39.297Z,23.90
2022-12-02T02:10:09.361Z,22.77
2022-12-02T02:12:37.380Z,22.67
2022-12-02T02:15:07.012Z,23.13
2022-12-02T02:17:34.822Z,23.27
2022-12-02T02:20:02.884Z,22.98
2022-12-02T02:22:37.485Z,20.60
2022-12-02T02:25:10.418Z,20.70
2022-12-02T02:27:38.115Z,21.55
2022-12-02T02:30:06.909Z,19.92
2022-12-02T02:32:34.726Z,21.13
2022-12-02T02:35:02.432Z,21.20
2022-12-02T02:37:30.113Z,19.50
2022-12-02T02:39:57.800Z,18.23
2022-12-02T02:42:27.109Z,18.63
2022-12-02T02:44:55.155Z,18.95
2022-12-02T02:47:22.895Z,18.95
2022-12-02T02:49:50.540Z,18.55
2022-12-02T02:52:18.152Z,18.40
2022-12-02T02:54:45.773Z,17.27
2022-12-02T02:57:13.452Z,17.35
2022-12-02T02:59:43.779Z,17.02
2022-12-02T03:02:12.973Z,17.40
2022-12-02T03:04:41.456Z,17.60
2022-12-02T03:07:09.280Z,18.17
2022-12-02T03:09:36.993Z,16.88
2022-12-02T03:12:05.169Z,17.35
2022-12-02T03:14:32.873Z,16.90
2022-12-02T03:17:03.143Z,17.58
2022-12-02T03:19:32.876Z,16.35
2022-12-02T03:22:01.375Z,18.73
2022-12-02T03:24:29.378Z,17.55
2022-12-02T03:26:57.089Z,18.60
2022-12-02T03:29:24.876Z,18.05
2022-12-02T03:31:52.508Z,18.67
2022-12-02T03:34:21.756Z,20.52
2022-12-02T03:36:49.485Z,17.98
2022-12-02T03:39:17.557Z,19.67
2022-12-02T03:41:46.209Z,18.90
2022-12-02T03:44:14.081Z,19.90
2022-12-02T03:46:41.882Z,19.25
2022-12-02T03:49:09.967Z,19.60
2022-12-02T03:51:39.106Z,20.33
2022-12-02T03:54:07.096Z,23.17
2022-12-02T03:56:38.153Z,23.35
2022-12-02T03:59:05.814Z,25.38
2022-12-02T04:01:33.625Z,23.17
2022-12-02T04:04:01.357Z,23.23
2022-12-02T04:06:29.087Z,22.75
2022-12-02T04:08:58.134Z,23.98
2022-12-02T04:11:25.998Z,23.27
2022-12-02T04:13:53.731Z,22.80
2022-12-02T04:16:21.462Z,23.45
2022-12-02T04:18:49.237Z,21.98
2022-12-02T04:21:16.851Z,22.13
2022-12-02T04:23:44.579Z,21.85
2022-12-02T04:26:13.606Z,20.60
2022-12-02T04:28:41.252Z,20.30
2022-12-02T04:31:08.915Z,21.02
2022-12-02T04:33:36.623Z,21.60
2022-12-02T04:36:04.525Z,21.10
2022-12-02T04:38:32.159Z,20.95
2022-12-02T04:40:59.817Z,20.33
2022-12-02T04:43:28.790Z,21.30
2022-12-02T04:45:56.424Z,19.33
2022-12-02T04:48:24.077Z,19.70
2022-12-02T04:50:51.724Z,19.40
2022-12-02T04:53:19.350Z,18.05
2022-12-02T04:55:47.669Z,17.98
2022-12-02T04:58:15.764Z,18.42
2022-12-02T05:00:44.764Z,18.35
2022-12-02T05:03:12.407Z,19.23
2022-12-02T05:05:40.079Z,18.77
2022-12-02T05:08:07.748Z,18.90
2022-12-02T05:10:35.425Z,18.48
2022-12-02T05:13:03.047Z,18.67
2022-12-02T05:15:30.673Z,18.48
2022-12-02T05:17:59.685Z,18.42
2022-12-02T05:20:27.319Z,19.50
2022-12-02T05:22:54.920Z,19.50
2022-12-02T05:25:22.536Z,19.40
2022-12-02T05:27:50.184Z,19.70
2022-12-02T05:30:18.179Z,19.73
2022-12-02T05:32:45.892Z,20.23
2022-12-02T05:35:14.896Z,19.63
2022-12-02T05:37:42.541Z,19.90
2022-12-02T05:40:11.353Z,19.88
2022-12-02T05:42:39.042Z,21.23
2022-12-02T05:45:15.477Z,21.40
2022-12-02T05:50:15.018Z,20.73
2022-12-02T05:52:44.282Z,21.13
2022-12-02T05:55:17.408Z,20.67
2022-12-02T05:57:45.188Z,22.33
2022-12-02T06:00:18.151Z,21.88
2022-12-02T06:02:47.722Z,20.98
2022-12-02T06:05:22.266Z,22.95
2022-12-02T06:07:51.653Z,22.50
2022-12-02T06:10:28.804Z,21.90
2022-12-02T06:12:59.755Z,23.95
2022-12-02T06:15:29.078Z,22.20
2022-12-02T06:17:56.807Z,24.60
2022-12-02T06:20:29.780Z,24.38
2022-12-02T06:22:57.967Z,22.77
2022-12-02T06:25:27.564Z,25.20
2022-12-02T06:28:04.675Z,26.23
2022-12-02T06:30:36.685Z,25.80
2022-12-02T06:33:04.374Z,25.83
2022-12-02T06:35:34.351Z,23.98
2022-12-02T06:38:04.239Z,24.23
2022-12-02T06:40:33.762Z,23.83
2022-12-02T06:43:02.798Z,24.13
2022-12-02T06:45:32.091Z,25.58
2022-12-02T06:48:07.161Z,24.38
2022-12-02T06:50:42.419Z,23.30
2022-12-02T06:53:33.525Z,25.03
2022-12-02T06:56:03.516Z,23.77
2022-12-02T06:58:35.616Z,25.90
2022-12-02T07:01:20.451Z,23.40
2022-12-02T07:03:50.996Z,24.85
2022-12-02T07:06:22.456Z,24.60
2022-12-02T07:08:50.103Z,23.98
2022-12-02T07:11:44.036Z,23.08
2022-12-02T07:14:21.867Z,22.88
2022-12-02T07:16:50.960Z,24.60
2022-12-02T07:19:22.400Z,23.02
2022-12-02T07:21:53.667Z,23.27
2022-12-02T07:24:22.950Z,23.52
2022-12-02T07:26:51.274Z,22.90
2022-12-02T07:29:28.494Z,22.85
2022-12-02T07:31:56.166Z,21.80
2022-12-02T07:34:23.839Z,23.20
2022-12-02T07:36:52.827Z,21.50
2022-12-02T07:39:20.406Z,21.10
2022-12-02T07:41:48.054Z,22.90
2022-12-02T07:44:15.715Z,23.80
2022-12-02T07:46:43.378Z,22.80
2022-12-02T07:49:11.028Z,21.05
2022-12-02T07:51:38.729Z,22.02
2022-12-02T07:54:07.689Z,23.42
2022-12-02T07:56:35.341Z,22.40
2022-12-02T07:59:12.342Z,21.95
2022-12-02T08:01:41.012Z,21.70
2022-12-02T08:04:08.748Z,22.83
2022-12-02T08:06:39.778Z,22.27
2022-12-02T08:09:09.556Z,20.35
2022-12-02T08:11:37.342Z,21.27
2022-12-02T08:14:05.051Z,22.02
2022-12-02T08:16:32.807Z,22.70
2022-12-02T08:19:01.156Z,21.38
2022-12-02T08:21:30.846Z,20.45
2022-12-02T08:23:58.453Z,20.25
2022-12-02T08:26:28.262Z,19.30
2022-12-02T08:28:55.928Z,19.35
2022-12-02T08:31:23.863Z,20.65
2022-12-02T08:33:51.699Z,19.48
2022-12-02T08:36:20.033Z,19.33
2022-12-02T08:38:47.747Z,19.83
2022-12-02T08:41:16.311Z,20.88
2022-12-02T08:43:45.332Z,19.40
2022-12-02T08:46:13.713Z,21.20
2022-12-02T08:48:41.501Z,21.02
2022-12-02T08:51:09.114Z,20.67
2022-12-02T08:53:36.760Z,19.77
2022-12-02T08:56:04.412Z,20.27
2022-12-02T08:58:32.050Z,20.85
2022-12-02T09:01:01.071Z,20.40
2022-12-02T09:03:28.714Z,22.75
2022-12-02T09:05:56.326Z,22.08
2022-12-02T09:08:24.064Z,21.00
2022-12-02T09:10:52.106Z,21.40
2022-12-02T09:13:19.846Z,21.65
2022-12-02T09:15:48.008Z,21.63
2022-12-02T09:18:17.043Z,20.73
2022-12-02T09:20:44.739Z,22.23
2022-12-02T09:23:12.348Z,23.17
2022-12-02T09:25:39.964Z,22.42
2022-12-02T09:28:07.907Z,21.08
2022-12-02T09:30:35.567Z,21.63
2022-12-02T09:33:03.496Z,21.55
2022-12-02T09:35:32.536Z,22.85
2022-12-02T09:38:00.497Z,23.05
2022-12-02T09:40:28.540Z,23.13
2022-12-02T09:42:56.252Z,21.13
2022-12-02T09:45:23.877Z,22.38
2022-12-02T09:47:51.491Z,22.83
2022-12-02T09:50:19.375Z,23.77
2022-12-02T09:52:48.896Z,24.17
2022-12-02T09:55:18.523Z,22.90
2022-12-02T09:57:47.858Z,22.00
2022-12-02T10:00:17.788Z,20.77
2022-12-02T10:02:47.035Z,21.95
2022-12-02T10:05:17.651Z,20.50
2022-12-02T10:07:45.831Z,22.10
2022-12-02T10:10:17.108Z,19.30
2022-12-02T10:12:45.020Z,19.27
2022-12-02T10:15:13.641Z,20.30
2022-12-02T10:17:41.432Z,18.92
2022-12-02T10:20:11.700Z,19.15
2022-12-02T10:23:06.297Z,19.13
2022-12-02T10:25:35.812Z,18.70
2022-12-02T10:28:03.945Z,18.67
2022-12-02T10:30:31.809Z,17.58
2022-12-02T10:33:01.635Z,18.08
2022-12-02T10:35:30.327Z,17.27
2022-12-02T10:37:58.051Z,17.40
2022-12-02T10:40:25.981Z,17.05
2022-12-02T10:43:11.601Z,17.67
2022-12-02T10:45:39.616Z,17.30
2022-12-02T10:48:14.636Z,17.75
2022-12-02T10:50:42.354Z,16.15
2022-12-02T10:53:13.921Z,15.52
2022-12-02T10:55:41.982Z,15.98
2022-12-02T10:58:15.023Z,13.48
2022-12-02T11:00:44.656Z,13.23
2022-12-02T11:03:12.505Z,13.43
2022-12-02T11:05:41.907Z,12.80
2022-12-02T11:08:20.046Z,13.73
2022-12-02T11:10:49.399Z,13.65
2022-12-02T11:13:49.906Z,14.10
2022-12-02T11:16:53.912Z,12.40
2022-12-02T11:19:54.774Z,13.80
2022-12-02T11:23:08.877Z,13.27
2022-12-02T11:26:09.543Z,12.77
2022-12-02T11:28:49.824Z,12.55
2022-12-02T11:31:20.428Z,13.23
2022-12-02T11:34:25.391Z,13.45
2022-12-02T11:37:26.352Z,13.30
2022-12-02T11:39:54.608Z,13.05
2022-12-02T11:42:25.571Z,12.70
2022-12-02T11:44:55.123Z,12.88
2022-12-02T11:47:33.476Z,14.00
2022-12-02T11:50:19.806Z,14.27
2022-12-02T11:52:52.374Z,14.85
2022-12-02T11:55:21.256Z,14.05
2022-12-02T11:57:50.695Z,15.43
2022-12-02T12:00:26.420Z,16.25
2022-12-02T12:03:13.153Z,16.60
2022-12-02T12:05:41.585Z,18.23
2022-12-02T12:08:09.619Z,18.67
2022-12-02T12:10:39.379Z,19.95
2022-12-02T12:13:19.213Z,21.42
2022-12-02T12:15:56.521Z,22.30
2022-12-02T12:18:45.881Z,23.05
2022-12-02T12:21:14.706Z,27.48
2022-12-02T12:23:44.244Z,25.75
2022-12-02T12:26:33.203Z,26.92
2022-12-02T12:29:05.066Z,26.55
2022-12-02T12:31:38.306Z,29.08
2022-12-02T12:34:07.093Z,29.08
2022-12-02T12:36:34.809Z,30.17
2022-12-02T12:39:02.603Z,28.92
2022-12-02T12:41:58.364Z,26.63
2022-12-02T12:44:17.794Z,28.88
2022-12-02T12:46:46.770Z,29.48
2022-12-02T12:49:14.439Z,28.50
2022-12-02T12:51:42.094Z,31.00
2022-12-02T12:54:09.757Z,27.83
2022-12-02T12:56:37.457Z,32.85
2022-12-02T12:59:05.091Z,30.05
2022-12-02T13:01:32.781Z,31.48
2022-12-02T13:04:01.858Z,31.65
2022-12-02T13:06:29.559Z,31.58
2022-12-02T13:11:11.532Z,33.05
2022-12-02T13:13:39.208Z,33.00
2022-12-02T13:16:07.268Z,33.13
2022-12-02T13:18:35.072Z,33.88
2022-12-02T13:21:02.718Z,32.88
2022-12-02T13:23:30.316Z,34.72
2022-12-02T13:25:57.956Z,34.50
2022-12-02T13:28:26.979Z,33.72
2022-12-02T13:30:55.862Z,33.88
2022-12-02T13:33:23.567Z,32.35
2022-12-02T13:35:51.227Z,34.40
2022-12-02T13:38:18.828Z,34.78
2022-12-02T13:40:51.962Z,36.03
2022-12-02T13:43:20.091Z,35.28
2022-12-02T13:45:49.131Z,36.28
2022-12-02T13:48:16.820Z,35.25
2022-12-02T13:50:44.848Z,36.17
2022-12-02T13:53:12.482Z,37.67
2022-12-02T13:55:40.112Z,35.55
2022-12-02T13:58:07.730Z,35.15
2022-12-02T14:00:35.351Z,35.15
2022-12-02T14:03:04.536Z,33.65
2022-12-02T14:05:32.135Z,36.45
2022-12-02T14:07:59.828Z,35.78
2022-12-02T14:10:27.602Z,34.20
2022-12-02T14:12:56.646Z,35.30
2022-12-02T14:15:24.433Z,36.58
2022-12-02T14:17:52.134Z,35.97
2022-12-02T14:20:21.171Z,34.65
2022-12-02T14:22:48.859Z,36.22
2022-12-02T14:25:16.994Z,37.03
2022-12-02T14:27:44.630Z,37.17
2022-12-02T14:30:13.788Z,35.00
2022-12-02T14:32:41.631Z,37.95
2022-12-02T14:35:11.679Z,38.33
2022-12-02T14:37:40.762Z,36.28
2022-12-02T14:40:10.607Z,34.20
2022-12-02T14:42:38.305Z,33.63
2022-12-02T14:45:07.217Z,31.63
2022-12-02T14:47:35.021Z,32.30
2022-12-02T14:50:02.817Z,32.72
2022-12-02T14:52:30.733Z,31.88
2022-12-02T14:54:59.734Z,33.33
2022-12-02T14:57:27.416Z,32.63
2022-12-02T14:59:55.084Z,34.25
2022-12-02T15:02:22.864Z,33.95
2022-12-02T15:04:50.853Z,32.47
2022-12-02T15:07:18.752Z,33.88
2022-12-02T15:09:46.436Z,31.60
2022-12-02T15:12:15.498Z,31.73
2022-12-02T15:14:43.366Z,31.52
2022-12-02T15:17:11.015Z,33.63
2022-12-02T15:19:38.712Z,32.92
2022-12-02T15:22:06.332Z,31.92
2022-12-02T15:24:33.971Z,32.70
2022-12-02T15:27:02.387Z,31.02
2022-12-02T15:29:31.460Z,33.35
2022-12-02T15:31:59.188Z,33.75
2022-12-02T15:34:26.906Z,30.33
2022-12-02T15:36:54.505Z,32.33
2022-12-02T15:39:22.096Z,32.50
2022-12-02T15:41:49.778Z,32.65
2022-12-02T15:44:17.381Z,30.52
2022-12-02T15:46:46.513Z,29.48
2022-12-02T15:49:14.277Z,30.33
2022-12-02T15:51:41.963Z,31.55
2022-12-02T15:54:09.596Z,30.13
2022-12-02T15:56:37.196Z,32.13
2022-12-02T15:59:05.568Z,32.10
2022-12-02T16:01:33.274Z,30.92
2022-12-02T16:04:02.351Z,30.45
2022-12-02T16:06:29.943Z,31.73
2022-12-02T16:08:58.293Z,29.75
2022-12-02T16:11:25.942Z,29.73
2022-12-02T16:13:53.611Z,30.75
2022-12-02T16:16:21.383Z,29.42
2022-12-02T16:18:49.498Z,29.40
2022-12-02T16:21:19.007Z,29.92
2022-12-02T16:23:46.902Z,29.52
2022-12-02T16:26:14.735Z,26.13
2022-12-02T16:28:43.197Z,26.65
2022-12-02T16:31:10.931Z,26.08
2022-12-02T16:33:38.576Z,27.58
2022-12-02T16:36:06.617Z,26.88
2022-12-02T16:38:35.661Z,27.13
2022-12-02T16:41:03.277Z,26.48
2022-12-02T16:43:30.883Z,27.50
2022-12-02T16:45:58.649Z,28.63
2022-12-02T16:48:27.527Z,26.83
2022-12-02T16:50:56.128Z,25.83
2022-12-02T16:53:24.093Z,27.98
2022-12-02T16:55:53.782Z,28.23
2022-12-02T16:58:21.448Z,30.00
2022-12-02T17:00:49.154Z,27.60
2022-12-02T17:03:16.893Z,29.08
2022-12-02T17:05:44.541Z,28.63
2022-12-02T17:08:12.298Z,28.60
2022-12-02T17:10:39.984Z,27.05
2022-12-02T17:13:09.054Z,26.95
2022-12-02T17:15:36.886Z,26.83
2022-12-02T17:18:04.943Z,26.00
2022-12-02T17:20:32.645Z,24.20
2022-12-02T17:23:00.349Z,26.65
2022-12-02T17:25:27.960Z,26.25
2022-12-02T17:27:55.832Z,25.98
2022-12-02T17:30:24.865Z,26.50
2022-12-02T17:32:56.737Z,25.73
2022-12-02T17:35:25.115Z,22.83
2022-12-02T17:37:52.724Z,23.30
2022-12-02T17:40:20.498Z,22.92
2022-12-02T17:42:48.144Z,24.27
2022-12-02T17:45:15.982Z,23.65
2022-12-02T17:47:45.061Z,23.60
2022-12-02T17:50:15.027Z,22.45
2022-12-02T17:52:42.768Z,24.23
2022-12-02T17:55:11.084Z,21.50
2022-12-02T17:57:38.857Z,21.80
2022-12-02T18:00:08.050Z,20.40
2022-12-02T18:02:35.824Z,18.35
2022-12-02T18:05:05.422Z,18.27
2022-12-02T18:07:33.138Z,17.50
2022-12-02T18:10:00.807Z,18.33
2022-12-02T18:12:28.433Z,17.40
2022-12-02T18:14:56.098Z,15.18
2022-12-02T18:17:23.758Z,14.85
2022-12-02T18:19:51.402Z,15.43
2022-12-02T18:22:20.485Z,14.63
2022-12-02T18:24:48.109Z,13.77
2022-12-02T18:27:15.769Z,14.27
2022-12-02T18:29:43.595Z,14.27
2022-12-02T18:32:11.653Z,13.95
2022-12-02T18:34:39.502Z,15.25
2022-12-02T18:37:07.349Z,13.45
2022-12-02T18:39:36.394Z,14.70
2022-12-02T18:42:04.073Z,14.27
2022-12-02T18:44:31.734Z,14.10
2022-12-02T18:46:59.370Z,14.63
2022-12-02T18:49:27.043Z,15.70
2022-12-02T18:51:55.098Z,15.38
2022-12-02T18:54:23.167Z,14.30
2022-12-02T18:56:52.244Z,13.35
2022-12-02T18:59:19.875Z,14.07
2022-12-02T19:01:47.635Z,14.90
2022-12-02T19:04:15.724Z,14.07
2022-12-02T19:06:44.519Z,14.13
2022-12-02T19:09:12.499Z,15.25
2022-12-02T19:11:40.203Z,13.00
2022-12-02T19:14:09.284Z,14.63
2022-12-02T19:16:36.983Z,14.95
2022-12-02T19:19:04.704Z,15.13
2022-12-02T19:21:32.356Z,14.93
2022-12-02T19:23:59.984Z,13.98
2022-12-02T19:26:27.572Z,14.70
2022-12-02T19:28:55.172Z,14.23
2022-12-02T19:31:24.337Z,14.65
2022-12-02T19:33:52.029Z,13.57
2022-12-02T19:36:19.723Z,13.07
2022-12-02T19:38:47.432Z,14.23
2022-12-02T19:41:15.107Z,13.90
2022-12-02T19:43:43.089Z,14.75
2022-12-02T19:46:10.900Z,14.57
2022-12-02T19:48:39.978Z,14.57
2022-12-02T19:51:07.666Z,14.85
2022-12-02T19:53:37.301Z,15.25
2022-12-02T19:56:05.159Z,14.93
2022-12-02T19:58:32.848Z,15.25
2022-12-02T20:01:00.451Z,15.45
2022-12-02T20:03:28.177Z,15.32
2022-12-02T20:06:00.472Z,15.85
2022-12-02T20:08:28.169Z,15.07
2022-12-02T20:10:56.035Z,14.95
2022-12-02T20:13:23.772Z,14.48
2022-12-02T20:15:56.578Z,14.93
2022-12-02T20:18:25.823Z,14.95
2022-12-02T20:20:53.467Z,15.02
2022-12-02T20:23:23.188Z,14.48
2022-12-02T20:25:50.856Z,14.32
2022-12-02T20:28:18.465Z,14.13
2022-12-02T20:30:46.103Z,14.10
2022-12-02T20:33:13.679Z,13.98
2022-12-02T20:35:41.574Z,13.10
2022-12-02T20:38:09.659Z,13.73
2022-12-02T20:40:41.553Z,14.75
2022-12-02T20:43:09.372Z,14.30
2022-12-02T20:45:37.007Z,13.95
2022-12-02T20:50:01.568Z,13.75
2022-12-02T20:52:29.217Z,13.55
2022-12-02T20:54:56.983Z,14.40
2022-12-02T20:57:24.688Z,14.60
2022-12-02T20:59:53.279Z,13.75
2022-12-02T21:02:21.741Z,14.70
2022-12-02T21:04:49.686Z,15.27
2022-12-02T21:07:18.916Z,15.05
2022-12-02T21:09:46.538Z,15.63
2022-12-02T21:12:14.299Z,15.23
2022-12-02T21:14:41.963Z,15.13
2022-12-02T21:17:09.568Z,15.55
2022-12-02T21:19:37.222Z,15.48
2022-12-02T21:22:04.865Z,15.27
2022-12-02T21:24:33.924Z,17.27
2022-12-02T21:27:01.825Z,14.80
2022-12-02T21:29:29.503Z,15.38
2022-12-02T21:31:57.129Z,15.77
2022-12-02T21:34:24.732Z,16.25
2022-12-02T21:36:52.293Z,15.85
2022-12-02T21:39:19.914Z,16.38
2022-12-02T21:41:49.214Z,16.02
2022-12-02T21:44:16.887Z,16.20
2022-12-02T21:46:44.549Z,17.00
2022-12-02T21:49:12.301Z,15.10
2022-12-02T21:51:39.934Z,15.57
2022-12-02T21:54:07.547Z,15.63
2022-12-02T21:56:37.055Z,16.63
2022-12-02T21:59:06.406Z,17.58
2022-12-02T22:01:42.121Z,16.70
2022-12-02T22:04:12.079Z,16.60
2022-12-02T22:06:39.760Z,16.38
2022-12-02T22:09:07.640Z,16.60
2022-12-02T22:11:35.621Z,15.52
2022-12-02T22:14:04.131Z,16.67
2022-12-02T22:16:33.582Z,16.90
2022-12-02T22:19:01.351Z,16.95
2022-12-02T22:21:29.383Z,16.20
2022-12-02T22:23:56.993Z,17.05
2022-12-02T22:26:24.650Z,17.58
2022-12-02T22:28:52.291Z,17.55
2022-12-02T22:31:20.005Z,16.52
2022-12-02T22:33:49.144Z,16.33
2022-12-02T22:36:16.779Z,16.95
2022-12-02T22:38:44.440Z,16.80
2022-12-02T22:41:12.732Z,18.10
2022-12-02T22:43:41.525Z,16.45
2022-12-02T22:46:09.340Z,17.52
2022-12-02T22:48:37.036Z,17.67
2022-12-02T22:51:06.249Z,17.85
2022-12-02T22:53:33.908Z,18.33
2022-12-02T22:56:01.561Z,18.70
2022-12-02T22:58:29.156Z,17.27
2022-12-02T23:00:57.113Z,20.00
2022-12-02T23:03:24.864Z,18.35
2022-12-02T23:05:52.512Z,18.02
2022-12-02T23:08:21.520Z,18.20
2022-12-02T23:10:49.225Z,18.77
2022-12-02T23:13:16.873Z,18.40
2022-12-02T23:15:44.521Z,18.20
2022-12-02T23:18:12.146Z,18.58
2022-12-02T23:20:39.803Z,18.40
2022-12-02T23:23:07.529Z,19.60
2022-12-02T23:25:36.519Z,18.08
2022-12-02T23:28:04.422Z,19.15
2022-12-02T23:30:32.240Z,18.95
2022-12-02T23:33:00.328Z,19.08
2022-12-02T23:35:28.548Z,18.45
2022-12-02T23:37:56.131Z,18.38
2022-12-02T23:40:23.801Z,19.33
2022-12-02T23:42:52.865Z,20.20
2022-12-02T23:45:20.515Z,19.10
2022-12-02T23:47:48.162Z,19.60
2022-12-02T23:50:15.817Z,20.48
2022-12-02T23:52:43.609Z,19.50
2022-12-02T23:55:11.661Z,19.88
2022-12-02T23:57:39.416Z,19.50
